Fair Haven, Michigan
Current Conditions -  °F | °C
As of 8:58 PM on Wednesday 22 Oct 2014 (Local Time) from KMTC Reporting Station
Clear Clear  
Wind Chill: 37°   Ceiling: Unl
Heat Index: 42°   Visibility: 10mi
Dew Point: 39°   Wind: 9mph
Humidity: 90%   Direction: 10°N
Pressure: 30.27"   Gusts: NA
Location:  42.68°N, 82.65°W
Report Text: KMTC 230058Z AUTO 01008KT 10SM CLR 06/04 A3027 RMK AO2 SLP258 T00560041 $
Loading
Personal Weather Stations






























Interactive Weather Map
Tropical Storm Tracking
New forecast layout! Learn more

10-Day Weather Forecast

Advertisements
Track Severe Weather on mobile